sensor_id;sensor_type;location;lat;lon;timestamp;pressure;altitude;pressure_sealevel;temperature;humidity
54308;BME280;40208;39.778;2.710;2023-02-01T00:01:39;102625.22;;;4.24;100.00
54308;BME280;40208;39.778;2.710;2023-02-01T00:04:23;102626.94;;;4.18;100.00
54308;BME280;40208;39.778;2.710;2023-02-01T00:07:08;102625.94;;;4.08;100.00
54308;BME280;40208;39.778;2.710;2023-02-01T00:09:52;102620.63;;;4.02;100.00
54308;BME280;40208;39.778;2.710;2023-02-01T00:12:37;102624.19;;;4.10;100.00
54308;BME280;40208;39.778;2.710;2023-02-01T00:15:21;102637.28;;;4.06;100.00
54308;BME280;40208;39.778;2.710;2023-02-01T00:18:07;102621.53;;;4.07;100.00
54308;BME280;40208;39.778;2.710;2023-02-01T00:20:51;102617.13;;;4.04;100.00
54308;BME280;40208;39.778;2.710;2023-02-01T00:23:36;102612.78;;;4.07;100.00
54308;BME280;40208;39.778;2.710;2023-02-01T00:29:18;102629.44;;;4.07;100.00
54308;BME280;40208;39.778;2.710;2023-02-01T00:32:03;102624.16;;;4.04;100.00
54308;BME280;40208;39.778;2.710;2023-02-01T00:34:48;102618.84;;;4.02;100.00
54308;BME280;40208;39.778;2.710;2023-02-01T00:37:33;102618.94;;;4.09;100.00
54308;BME280;40208;39.778;2.710;2023-02-01T00:40:17;102626.88;;;4.15;100.00
54308;BME280;40208;39.778;2.710;2023-02-01T00:43:02;102625.03;;;4.08;100.00
54308;BME280;40208;39.778;2.710;2023-02-01T00:45:46;102620.59;;;4.00;100.00
54308;BME280;40208;39.778;2.710;2023-02-01T00:48:31;102613.69;;;4.10;100.00
54308;BME280;40208;39.778;2.710;2023-02-01T00:51:17;102617.16;;;4.06;100.00
54308;BME280;40208;39.778;2.710;2023-02-01T00:54:02;102624.94;;;3.98;100.00
54308;BME280;40208;39.778;2.710;2023-02-01T00:56:48;102623.16;;;3.96;100.00
54308;BME280;40208;39.778;2.710;2023-02-01T00:59:32;102618.75;;;3.93;100.00
54308;BME280;40208;39.778;2.710;2023-02-01T01:02:16;102620.59;;;3.99;100.00
54308;BME280;40208;39.778;2.710;2023-02-01T01:05:01;102619.63;;;3.94;100.00
54308;BME280;40208;39.778;2.710;2023-02-01T01:07:46;102621.38;;;3.92;100.00
54308;BME280;40208;39.778;2.710;2023-02-01T01:10:30;102628.25;;;3.83;100.00
54308;BME280;40208;39.778;2.710;2023-02-01T01:13:15;102623.91;;;3.86;100.00
54308;BME280;40208;39.778;2.710;2023-02-01T01:16:01;102614.31;;;3.88;100.00
54308;BME280;40208;39.778;2.710;2023-02-01T01:18:47;102626.50;;;3.82;100.00
54308;BME280;40208;39.778;2.710;2023-02-01T01:21:31;102629.09;;;3.79;100.00
54308;BME280;40208;39.778;2.710;2023-02-01T01:24:16;102622.97;;;3.77;100.00
54308;BME280;40208;39.778;2.710;2023-02-01T01:27:00;102613.22;;;3.72;100.00
54308;BME280;40208;39.778;2.710;2023-02-01T01:29:44;102622.91;;;3.73;100.00
54308;BME280;40208;39.778;2.710;2023-02-01T01:32:29;102620.31;;;3.77;100.00
54308;BME280;40208;39.778;2.710;2023-02-01T01:35:14;102619.41;;;3.74;100.00
54308;BME280;40208;39.778;2.710;2023-02-01T01:37:59;102614.94;;;3.70;100.00
54308;BME280;40208;39.778;2.710;2023-02-01T01:40:47;102613.25;;;3.73;100.00
54308;BME280;40208;39.778;2.710;2023-02-01T01:43:46;102622.78;;;3.65;100.00
54308;BME280;40208;39.778;2.710;2023-02-01T01:46:34;102629.00;;;3.70;100.00
54308;BME280;40208;39.778;2.710;2023-02-01T01:49:20;102618.44;;;3.67;100.00
54308;BME280;40208;39.778;2.710;2023-02-01T01:52:06;102608.75;;;3.65;100.00
54308;BME280;40208;39.778;2.710;2023-02-01T01:54:51;102621.78;;;3.54;100.00
54308;BME280;40208;39.778;2.710;2023-02-01T01:57:38;102620.81;;;3.50;100.00
54308;BME280;40208;39.778;2.710;2023-02-01T02:00:24;102618.16;;;3.49;100.00
54308;BME280;40208;39.778;2.710;2023-02-01T02:03:12;102612.16;;;3.54;100.00
54308;BME280;40208;39.778;2.710;2023-02-01T02:05:58;102616.53;;;3.54;100.00
54308;BME280;40208;39.778;2.710;2023-02-01T02:08:43;102611.13;;;3.45;100.00
54308;BME280;40208;39.778;2.710;2023-02-01T02:11:28;102615.50;;;3.44;100.00
54308;BME280;40208;39.778;2.710;2023-02-01T02:14:13;102609.28;;;3.37;100.00
54308;BME280;40208;39.778;2.710;2023-02-01T02:29:08;102590.81;;;3.31;100.00
54308;BME280;40208;39.778;2.710;2023-02-01T02:32:04;102596.03;;;3.28;100.00
54308;BME280;40208;39.778;2.710;2023-02-01T02:34:56;102589.84;;;3.23;100.00
54308;BME280;40208;39.778;2.710;2023-02-01T02:37:56;102593.38;;;3.25;100.00
54308;BME280;40208;39.778;2.710;2023-02-01T02:40:50;102596.00;;;3.25;100.00
54308;BME280;40208;39.778;2.710;2023-02-01T02:46:45;102588.88;;;3.16;100.00
54308;BME280;40208;39.778;2.710;2023-02-01T02:49:52;102582.81;;;3.21;100.00
54308;BME280;40208;39.778;2.710;2023-02-01T02:53:11;102579.28;;;3.18;100.00
54308;BME280;40208;39.778;2.710;2023-02-01T02:56:15;102579.38;;;3.26;100.00
54308;BME280;40208;39.778;2.710;2023-02-01T02:59:20;102569.56;;;3.11;100.00
54308;BME280;40208;39.778;2.710;2023-02-01T03:02:25;102580.06;;;3.11;100.00
54308;BME280;40208;39.778;2.710;2023-02-01T03:05:36;102579.19;;;3.12;100.00
54308;BME280;40208;39.778;2.710;2023-02-01T03:08:25;102579.09;;;3.08;100.00
54308;BME280;40208;39.778;2.710;2023-02-01T03:11:11;102574.69;;;3.05;100.00
54308;BME280;40208;39.778;2.710;2023-02-01T03:13:57;102579.03;;;3.02;100.00
54308;BME280;40208;39.778;2.710;2023-02-01T03:16:47;102569.38;;;3.01;100.00
54308;BME280;40208;39.778;2.710;2023-02-01T03:19:37;102580.81;;;3.06;100.00
54308;BME280;40208;39.778;2.710;2023-02-01T03:22:27;102573.78;;;3.03;100.00
54308;BME280;40208;39.778;2.710;2023-02-01T03:25:18;102582.50;;;3.01;100.00
54308;BME280;40208;39.778;2.710;2023-02-01T03:28:08;102574.56;;;2.94;100.00
54308;BME280;40208;39.778;2.710;2023-02-01T03:30:54;102580.66;;;2.93;100.00
54308;BME280;40208;39.778;2.710;2023-02-01T03:33:39;102579.63;;;2.84;100.00
54308;BME280;40208;39.778;2.710;2023-02-01T03:36:31;102578.91;;;2.92;100.00
54308;BME280;40208;39.778;2.710;2023-02-01T03:45:24;102583.19;;;2.87;100.00
54308;BME280;40208;39.778;2.710;2023-02-01T03:48:12;102582.28;;;2.87;100.00
54308;BME280;40208;39.778;2.710;2023-02-01T03:50:58;102590.28;;;2.94;100.00
54308;BME280;40208;39.778;2.710;2023-02-01T03:53:44;102592.84;;;2.90;100.00
54308;BME280;40208;39.778;2.710;2023-02-01T03:56:31;102584.91;;;2.87;100.00
54308;BME280;40208;39.778;2.710;2023-02-01T03:59:16;102584.75;;;2.78;100.00
54308;BME280;40208;39.778;2.710;2023-02-01T04:02:01;102586.53;;;2.79;100.00
54308;BME280;40208;39.778;2.710;2023-02-01T04:04:45;102589.13;;;2.75;100.00
54308;BME280;40208;39.778;2.710;2023-02-01T04:07:30;102586.50;;;2.77;100.00
54308;BME280;40208;39.778;2.710;2023-02-01T04:10:15;102584.72;;;2.73;100.00
54308;BME280;40208;39.778;2.710;2023-02-01T04:12:59;102584.75;;;2.76;100.00
54308;BME280;40208;39.778;2.710;2023-02-01T04:15:44;102579.56;;;2.79;100.00
54308;BME280;40208;39.778;2.710;2023-02-01T04:18:30;102585.59;;;2.75;100.00
54308;BME280;40208;39.778;2.710;2023-02-01T04:21:14;102584.63;;;2.68;100.00
54308;BME280;40208;39.778;2.710;2023-02-01T04:23:59;102575.00;;;2.67;100.00
54308;BME280;40208;39.778;2.710;2023-02-01T04:26:44;102574.22;;;2.74;100.00
54308;BME280;40208;39.778;2.710;2023-02-01T04:29:28;102587.19;;;2.64;100.00
54308;BME280;40208;39.778;2.710;2023-02-01T04:32:13;102582.78;;;2.61;100.00
54308;BME280;40208;39.778;2.710;2023-02-01T04:34:57;102576.69;;;2.65;100.00
54308;BME280;40208;39.778;2.710;2023-02-01T04:37:41;102583.69;;;2.65;100.00
54308;BME280;40208;39.778;2.710;2023-02-01T04:40:26;102594.16;;;2.65;100.00
54308;BME280;40208;39.778;2.710;2023-02-01T04:43:10;102591.50;;;2.62;100.00
54308;BME280;40208;39.778;2.710;2023-02-01T04:45:55;102583.56;;;2.57;100.00
54308;BME280;40208;39.778;2.710;2023-02-01T04:48:40;102584.56;;;2.65;100.00
54308;BME280;40208;39.778;2.710;2023-02-01T04:51:24;102596.75;;;2.62;100.00
54308;BME280;40208;39.778;2.710;2023-02-01T04:54:09;102593.19;;;2.57;100.00
54308;BME280;40208;39.778;2.710;2023-02-01T04:56:55;102593.19;;;2.58;100.00
54308;BME280;40208;39.778;2.710;2023-02-01T04:59:40;102598.47;;;2.60;100.00
54308;BME280;40208;39.778;2.710;2023-02-01T05:02:24;102605.38;;;2.56;100.00
54308;BME280;40208;39.778;2.710;2023-02-01T05:05:08;102599.34;;;2.60;100.00
54308;BME280;40208;39.778;2.710;2023-02-01T05:07:53;102598.50;;;2.61;100.00
54308;BME280;40208;39.778;2.710;2023-02-01T05:10:37;102602.78;;;2.58;100.00
54308;BME280;40208;39.778;2.710;2023-02-01T05:13:21;102607.88;;;2.48;100.00
54308;BME280;40208;39.778;2.710;2023-02-01T05:16:24;102606.19;;;2.53;100.00
54308;BME280;40208;39.778;2.710;2023-02-01T05:19:09;102599.09;;;2.46;100.00
54308;BME280;40208;39.778;2.710;2023-02-01T05:21:53;102610.34;;;2.41;100.00
54308;BME280;40208;39.778;2.710;2023-02-01T05:24:38;102607.69;;;2.39;100.00
54308;BME280;40208;39.778;2.710;2023-02-01T05:27:22;102612.03;;;2.37;100.00
54308;BME280;40208;39.778;2.710;2023-02-01T05:30:07;102606.78;;;2.36;100.00
54308;BME280;40208;39.778;2.710;2023-02-01T05:32:52;102608.59;;;2.40;100.00
54308;BME280;40208;39.778;2.710;2023-02-01T05:35:37;102619.97;;;2.40;100.00
54308;BME280;40208;39.778;2.710;2023-02-01T05:38:21;102612.03;;;2.36;100.00
54308;BME280;40208;39.778;2.710;2023-02-01T05:41:06;102603.19;;;2.32;100.00
54308;BME280;40208;39.778;2.710;2023-02-01T05:43:50;102611.94;;;2.31;100.00
54308;BME280;40208;39.778;2.710;2023-02-01T05:46:35;102624.13;;;2.29;100.00
54308;BME280;40208;39.778;2.710;2023-02-01T05:49:20;102629.31;;;2.26;100.00
54308;BME280;40208;39.778;2.710;2023-02-01T05:52:05;102628.31;;;2.19;100.00
54308;BME280;40208;39.778;2.710;2023-02-01T05:54:50;102630.97;;;2.22;100.00
54308;BME280;40208;39.778;2.710;2023-02-01T05:57:34;102632.63;;;2.17;100.00
54308;BME280;40208;39.778;2.710;2023-02-01T06:00:19;102639.59;;;2.18;100.00
54308;BME280;40208;39.778;2.710;2023-02-01T06:03:04;102633.50;;;2.16;100.00
54308;BME280;40208;39.778;2.710;2023-02-01T06:05:48;102632.50;;;2.11;100.00
54308;BME280;40208;39.778;2.710;2023-02-01T06:08:33;102643.94;;;2.15;100.00
54308;BME280;40208;39.778;2.710;2023-02-01T06:11:17;102642.22;;;2.17;100.00
54308;BME280;40208;39.778;2.710;2023-02-01T06:14:02;102644.63;;;2.06;100.00
54308;BME280;40208;39.778;2.710;2023-02-01T06:16:47;102639.47;;;2.10;100.00
54308;BME280;40208;39.778;2.710;2023-02-01T06:19:31;102651.59;;;2.05;100.00
54308;BME280;40208;39.778;2.710;2023-02-01T06:22:16;102645.25;;;1.94;100.00
54308;BME280;40208;39.778;2.710;2023-02-01T06:25:01;102648.72;;;1.93;100.00
54308;BME280;40208;39.778;2.710;2023-02-01T06:27:46;102643.50;;;1.93;100.00
54308;BME280;40208;39.778;2.710;2023-02-01T06:30:30;102649.59;;;1.94;100.00
54308;BME280;40208;39.778;2.710;2023-02-01T06:33:15;102653.19;;;1.97;100.00
54308;BME280;40208;39.778;2.710;2023-02-01T06:36:00;102654.84;;;1.94;100.00
54308;BME280;40208;39.778;2.710;2023-02-01T06:38:45;102654.81;;;1.92;100.00
54308;BME280;40208;39.778;2.710;2023-02-01T06:41:29;102652.38;;;2.00;100.00
54308;BME280;40208;39.778;2.710;2023-02-01T06:44:14;102656.63;;;1.95;100.00
54308;BME280;40208;39.778;2.710;2023-02-01T06:46:58;102648.78;;;1.95;100.00
54308;BME280;40208;39.778;2.710;2023-02-01T06:49:43;102654.94;;;1.98;100.00
54308;BME280;40208;39.778;2.710;2023-02-01T06:52:28;102649.66;;;1.97;100.00
54308;BME280;40208;39.778;2.710;2023-02-01T06:55:13;102654.81;;;1.92;100.00
54308;BME280;40208;39.778;2.710;2023-02-01T06:57:58;102655.72;;;1.94;100.00
54308;BME280;40208;39.778;2.710;2023-02-01T07:00:42;102647.03;;;1.95;100.00
54308;BME280;40208;39.778;2.710;2023-02-01T07:03:27;102662.75;;;1.95;100.00
54308;BME280;40208;39.778;2.710;2023-02-01T07:06:11;102655.91;;;2.02;100.00
54308;BME280;40208;39.778;2.710;2023-02-01T07:08:56;102656.00;;;2.08;100.00
54308;BME280;40208;39.778;2.710;2023-02-01T07:11:41;102659.41;;;2.02;100.00
54308;BME280;40208;39.778;2.710;2023-02-01T07:14:27;102662.84;;;2.01;100.00
54308;BME280;40208;39.778;2.710;2023-02-01T07:17:12;102676.81;;;2.00;100.00
54308;BME280;40208;39.778;2.710;2023-02-01T07:19:56;102673.41;;;2.04;100.00
54308;BME280;40208;39.778;2.710;2023-02-01T07:22:42;102663.00;;;2.07;100.00
54308;BME280;40208;39.778;2.710;2023-02-01T07:25:27;102671.88;;;2.14;100.00
54308;BME280;40208;39.778;2.710;2023-02-01T07:28:11;102673.56;;;2.13;100.00
54308;BME280;40208;39.778;2.710;2023-02-01T07:31:02;102680.53;;;2.11;100.00
54308;BME280;40208;39.778;2.710;2023-02-01T07:33:50;102669.16;;;2.09;100.00
54308;BME280;40208;39.778;2.710;2023-02-01T07:36:35;102670.06;;;2.11;100.00
54308;BME280;40208;39.778;2.710;2023-02-01T07:39:20;102675.31;;;2.11;100.00
54308;BME280;40208;39.778;2.710;2023-02-01T07:42:05;102672.75;;;2.15;100.00
54308;BME280;40208;39.778;2.710;2023-02-01T07:44:49;102675.41;;;2.18;100.00
54308;BME280;40208;39.778;2.710;2023-02-01T07:47:34;102679.00;;;2.23;100.00
54308;BME280;40208;39.778;2.710;2023-02-01T07:50:18;102670.25;;;2.21;100.00
54308;BME280;40208;39.778;2.710;2023-02-01T07:53:03;102683.41;;;2.24;100.00
54308;BME280;40208;39.778;2.710;2023-02-01T07:55:48;102682.69;;;2.32;100.00
54308;BME280;40208;39.778;2.710;2023-02-01T07:58:39;102683.53;;;2.31;100.00
54308;BME280;40208;39.778;2.710;2023-02-01T08:01:30;102697.50;;;2.30;100.00
54308;BME280;40208;39.778;2.710;2023-02-01T08:04:21;102690.53;;;2.32;100.00
54308;BME280;40208;39.778;2.710;2023-02-01T08:07:12;102701.00;;;2.31;100.00
54308;BME280;40208;39.778;2.710;2023-02-01T08:10:03;102705.47;;;2.35;100.00
54308;BME280;40208;39.778;2.710;2023-02-01T08:12:59;102696.00;;;2.43;100.00
54308;BME280;40208;39.778;2.710;2023-02-01T08:15:50;102698.84;;;2.55;100.00
54308;BME280;40208;39.778;2.710;2023-02-01T08:18:41;102706.94;;;2.66;100.00
54308;BME280;40208;39.778;2.710;2023-02-01T08:21:32;102704.44;;;2.74;100.00
54308;BME280;40208;39.778;2.710;2023-02-01T08:24:29;102709.91;;;2.86;100.00
54308;BME280;40208;39.778;2.710;2023-02-01T08:27:20;102716.19;;;2.94;100.00
54308;BME280;40208;39.778;2.710;2023-02-01T08:30:05;102721.56;;;3.04;100.00
54308;BME280;40208;39.778;2.710;2023-02-01T08:32:51;102723.47;;;3.12;100.00
54308;BME280;40208;39.778;2.710;2023-02-01T08:35:35;102728.00;;;3.21;100.00
54308;BME280;40208;39.778;2.710;2023-02-01T08:38:20;102730.78;;;3.30;100.00
54308;BME280;40208;39.778;2.710;2023-02-01T08:41:05;102728.22;;;3.35;100.00
54308;BME280;40208;39.778;2.710;2023-02-01T08:43:50;102729.25;;;3.46;100.00
54308;BME280;40208;39.778;2.710;2023-02-01T08:46:35;102732.09;;;3.58;100.00
54308;BME280;40208;39.778;2.710;2023-02-01T08:49:19;102731.41;;;3.72;100.00
54308;BME280;40208;39.778;2.710;2023-02-01T08:52:04;102735.06;;;3.83;100.00
54308;BME280;40208;39.778;2.710;2023-02-01T08:54:48;102740.56;;;4.00;100.00
54308;BME280;40208;39.778;2.710;2023-02-01T08:57:33;102747.81;;;4.19;100.00
54308;BME280;40208;39.778;2.710;2023-02-01T09:00:18;102756.03;;;4.44;100.00
54308;BME280;40208;39.778;2.710;2023-02-01T09:03:03;102750.09;;;4.65;100.00
54308;BME280;40208;39.778;2.710;2023-02-01T09:05:47;102745.94;;;4.84;100.00
54308;BME280;40208;39.778;2.710;2023-02-01T09:08:32;102758.38;;;5.00;100.00
54308;BME280;40208;39.778;2.710;2023-02-01T09:11:18;102760.34;;;5.20;100.00
54308;BME280;40208;39.778;2.710;2023-02-01T09:14:03;102763.97;;;5.34;100.00
54308;BME280;40208;39.778;2.710;2023-02-01T09:16:48;102757.94;;;5.49;100.00
54308;BME280;40208;39.778;2.710;2023-02-01T09:19:32;102763.28;;;5.61;100.00
54308;BME280;40208;39.778;2.710;2023-02-01T09:22:17;102770.41;;;5.76;100.00
54308;BME280;40208;39.778;2.710;2023-02-01T09:25:01;102766.16;;;5.93;100.00
54308;BME280;40208;39.778;2.710;2023-02-01T09:27:46;102770.66;;;6.14;100.00
54308;BME280;40208;39.778;2.710;2023-02-01T09:30:31;102759.38;;;6.39;100.00
54308;BME280;40208;39.778;2.710;2023-02-01T09:33:16;102760.34;;;6.61;100.00
54308;BME280;40208;39.778;2.710;2023-02-01T09:36:03;102760.38;;;6.80;100.00
54308;BME280;40208;39.778;2.710;2023-02-01T09:38:47;102756.91;;;6.95;100.00
54308;BME280;40208;39.778;2.710;2023-02-01T09:41:51;102750.75;;;7.16;100.00
54308;BME280;40208;39.778;2.710;2023-02-01T09:47:24;102743.69;;;7.58;100.00
54308;BME280;40208;39.778;2.710;2023-02-01T09:50:14;102744.56;;;7.82;100.00
54308;BME280;40208;39.778;2.710;2023-02-01T09:53:15;102742.72;;;8.08;100.00
54308;BME280;40208;39.778;2.710;2023-02-01T09:56:06;102747.06;;;8.31;100.00
54308;BME280;40208;39.778;2.710;2023-02-01T09:58:52;102746.97;;;8.53;100.00
54308;BME280;40208;39.778;2.710;2023-02-01T10:01:39;102743.34;;;8.70;100.00
54308;BME280;40208;39.778;2.710;2023-02-01T10:04:24;102746.75;;;8.93;100.00
54308;BME280;40208;39.778;2.710;2023-02-01T10:10:01;102735.81;;;9.36;100.00
54308;BME280;40208;39.778;2.710;2023-02-01T10:12:53;102735.66;;;9.54;100.00
54308;BME280;40208;39.778;2.710;2023-02-01T10:16:00;102736.38;;;9.73;100.00
54308;BME280;40208;39.778;2.710;2023-02-01T10:18:51;102739.63;;;9.98;100.00
54308;BME280;40208;39.778;2.710;2023-02-01T10:27:21;102738.03;;;10.57;100.00
54308;BME280;40208;39.778;2.710;2023-02-01T10:30:29;102736.78;;;10.81;100.00
54308;BME280;40208;39.778;2.710;2023-02-01T10:33:33;102733.00;;;10.99;100.00
54308;BME280;40208;39.778;2.710;2023-02-01T10:39:02;102736.66;;;11.46;100.00
54308;BME280;40208;39.778;2.710;2023-02-01T10:41:47;102738.00;;;11.69;100.00
54308;BME280;40208;39.778;2.710;2023-02-01T10:44:32;102741.22;;;11.90;100.00
54308;BME280;40208;39.778;2.710;2023-02-01T10:47:19;102739.91;;;12.11;100.00
54308;BME280;40208;39.778;2.710;2023-02-01T10:50:11;102735.94;;;12.32;100.00
54308;BME280;40208;39.778;2.710;2023-02-01T10:58:30;102737.50;;;12.81;100.00
54308;BME280;40208;39.778;2.710;2023-02-01T11:01:17;102730.06;;;12.95;100.00
54308;BME280;40208;39.778;2.710;2023-02-01T11:04:03;102735.03;;;13.10;100.00
54308;BME280;40208;39.778;2.710;2023-02-01T11:06:53;102731.13;;;13.24;100.00
54308;BME280;40208;39.778;2.710;2023-02-01T11:09:39;102734.41;;;13.36;100.00
54308;BME280;40208;39.778;2.710;2023-02-01T11:12:26;102730.59;;;13.45;100.00
54308;BME280;40208;39.778;2.710;2023-02-01T11:15:19;102721.28;;;13.62;100.00
54308;BME280;40208;39.778;2.710;2023-02-01T11:18:17;102722.72;;;13.75;100.00
54308;BME280;40208;39.778;2.710;2023-02-01T11:21:03;102713.47;;;13.88;100.00
54308;BME280;40208;39.778;2.710;2023-02-01T11:23:48;102711.44;;;13.96;100.00
54308;BME280;40208;39.778;2.710;2023-02-01T11:26:33;102706.81;;;14.03;100.00
54308;BME280;40208;39.778;2.710;2023-02-01T11:29:18;102696.41;;;14.24;100.00
54308;BME280;40208;39.778;2.710;2023-02-01T11:32:06;102695.22;;;14.34;100.00
54308;BME280;40208;39.778;2.710;2023-02-01T11:35:14;102693.09;;;14.45;100.00
54308;BME280;40208;39.778;2.710;2023-02-01T11:37:57;102681.28;;;14.54;100.00
54308;BME280;40208;39.778;2.710;2023-02-01T11:40:45;102681.09;;;14.60;100.00
54308;BME280;40208;39.778;2.710;2023-02-01T11:43:30;102674.81;;;14.61;100.00
54308;BME280;40208;39.778;2.710;2023-02-01T11:46:17;102669.91;;;14.75;100.00
54308;BME280;40208;39.778;2.710;2023-02-01T11:49:25;102666.09;;;14.82;100.00
54308;BME280;40208;39.778;2.710;2023-02-01T11:55:08;102658.59;;;14.94;100.00
54308;BME280;40208;39.778;2.710;2023-02-01T12:12:42;102637.94;;;15.49;100.00
54308;BME280;40208;39.778;2.710;2023-02-01T12:15:35;102627.00;;;15.57;100.00
54308;BME280;40208;39.778;2.710;2023-02-01T12:18:41;102626.00;;;15.59;100.00
54308;BME280;40208;39.778;2.710;2023-02-01T12:29:59;102614.88;;;15.72;100.00
54308;BME280;40208;39.778;2.710;2023-02-01T12:35:52;102596.69;;;15.80;100.00
54308;BME280;40208;39.778;2.710;2023-02-01T12:38:52;102591.94;;;15.88;100.00
54308;BME280;40208;39.778;2.710;2023-02-01T12:55:58;102582.13;;;15.87;100.00
54308;BME280;40208;39.778;2.710;2023-02-01T12:58:49;102576.78;;;15.87;100.00
54308;BME280;40208;39.778;2.710;2023-02-01T13:01:36;102573.41;;;15.82;100.00
54308;BME280;40208;39.778;2.710;2023-02-01T13:04:34;102569.09;;;15.78;100.00
54308;BME280;40208;39.778;2.710;2023-02-01T13:07:25;102575.22;;;15.81;100.00
54308;BME280;40208;39.778;2.710;2023-02-01T13:10:15;102571.19;;;15.69;100.00
54308;BME280;40208;39.778;2.710;2023-02-01T13:22:07;102557.75;;;15.22;100.00
54308;BME280;40208;39.778;2.710;2023-02-01T13:25:02;102559.84;;;15.14;100.00
54308;BME280;40208;39.778;2.710;2023-02-01T13:27:48;102566.44;;;15.04;100.00
54308;BME280;40208;39.778;2.710;2023-02-01T13:30:36;102568.91;;;15.10;100.00
54308;BME280;40208;39.778;2.710;2023-02-01T13:36:35;102566.06;;;14.90;100.00
54308;BME280;40208;39.778;2.710;2023-02-01T13:42:41;102563.28;;;14.66;100.00
54308;BME280;40208;39.778;2.710;2023-02-01T13:45:30;102566.75;;;14.70;100.00
54308;BME280;40208;39.778;2.710;2023-02-01T13:51:36;102565.50;;;14.52;100.00
54308;BME280;40208;39.778;2.710;2023-02-01T13:54:28;102556.09;;;14.40;100.00
54308;BME280;40208;39.778;2.710;2023-02-01T13:57:32;102554.66;;;14.30;100.00
54308;BME280;40208;39.778;2.710;2023-02-01T14:00:30;102555.75;;;14.24;100.00
54308;BME280;40208;39.778;2.710;2023-02-01T14:03:22;102553.25;;;14.18;100.00
54308;BME280;40208;39.778;2.710;2023-02-01T14:11:55;102547.31;;;14.10;100.00
54308;BME280;40208;39.778;2.710;2023-02-01T14:14:43;102536.69;;;14.07;100.00
54308;BME280;40208;39.778;2.710;2023-02-01T14:17:32;102538.50;;;14.06;100.00
54308;BME280;40208;39.778;2.710;2023-02-01T14:23:23;102543.81;;;14.08;100.00
54308;BME280;40208;39.778;2.710;2023-02-01T14:26:09;102541.91;;;14.11;100.00
54308;BME280;40208;39.778;2.710;2023-02-01T14:28:59;102543.53;;;14.17;100.00
54308;BME280;40208;39.778;2.710;2023-02-01T14:32:04;102536.34;;;14.19;100.00
54308;BME280;40208;39.778;2.710;2023-02-01T14:34:52;102535.59;;;14.14;100.00
54308;BME280;40208;39.778;2.710;2023-02-01T14:37:38;102530.50;;;14.06;100.00
54308;BME280;40208;39.778;2.710;2023-02-01T14:40:24;102526.13;;;14.04;100.00
54308;BME280;40208;39.778;2.710;2023-02-01T14:43:09;102518.94;;;14.06;100.00
54308;BME280;40208;39.778;2.710;2023-02-01T14:45:54;102521.59;;;14.07;100.00
54308;BME280;40208;39.778;2.710;2023-02-01T14:48:41;102516.91;;;14.14;100.00
54308;BME280;40208;39.778;2.710;2023-02-01T14:51:26;102515.34;;;14.07;100.00
54308;BME280;40208;39.778;2.710;2023-02-01T14:54:11;102515.28;;;14.10;100.00
54308;BME280;40208;39.778;2.710;2023-02-01T14:56:57;102521.75;;;14.01;100.00
54308;BME280;40208;39.778;2.710;2023-02-01T14:59:42;102510.41;;;13.94;100.00
54308;BME280;40208;39.778;2.710;2023-02-01T15:02:27;102514.00;;;13.93;100.00
54308;BME280;40208;39.778;2.710;2023-02-01T15:08:16;102529.91;;;13.96;100.00
54308;BME280;40208;39.778;2.710;2023-02-01T15:11:03;102515.59;;;13.99;100.00
54308;BME280;40208;39.778;2.710;2023-02-01T15:13:49;102513.03;;;13.96;100.00
54308;BME280;40208;39.778;2.710;2023-02-01T15:16:34;102507.72;;;13.94;100.00
54308;BME280;40208;39.778;2.710;2023-02-01T15:19:27;102511.19;;;13.98;100.00
54308;BME280;40208;39.778;2.710;2023-02-01T15:22:13;102516.31;;;14.04;100.00
54308;BME280;40208;39.778;2.710;2023-02-01T15:25:02;102518.31;;;13.97;100.00
54308;BME280;40208;39.778;2.710;2023-02-01T15:27:47;102517.44;;;13.97;100.00
54308;BME280;40208;39.778;2.710;2023-02-01T15:30:33;102527.09;;;14.01;100.00
54308;BME280;40208;39.778;2.710;2023-02-01T15:33:19;102524.59;;;13.96;100.00
54308;BME280;40208;39.778;2.710;2023-02-01T15:36:08;102525.59;;;13.92;100.00
54308;BME280;40208;39.778;2.710;2023-02-01T15:41:59;102536.78;;;13.75;100.00
54308;BME280;40208;39.778;2.710;2023-02-01T15:44:46;102532.56;;;13.68;100.00
54308;BME280;40208;39.778;2.710;2023-02-01T15:47:31;102547.94;;;13.60;100.00
54308;BME280;40208;39.778;2.710;2023-02-01T15:50:16;102556.81;;;13.61;100.00
54308;BME280;40208;39.778;2.710;2023-02-01T15:53:01;102549.78;;;13.58;100.00
54308;BME280;40208;39.778;2.710;2023-02-01T15:55:47;102558.16;;;13.44;100.00
54308;BME280;40208;39.778;2.710;2023-02-01T15:58:36;102570.88;;;13.36;100.00
54308;BME280;40208;39.778;2.710;2023-02-01T16:01:20;102573.72;;;13.28;100.00
54308;BME280;40208;39.778;2.710;2023-02-01T16:04:24;102578.38;;;13.20;100.00
54308;BME280;40208;39.778;2.710;2023-02-01T16:07:29;102573.16;;;13.15;100.00
54308;BME280;40208;39.778;2.710;2023-02-01T16:10:23;102571.41;;;13.14;100.00
54308;BME280;40208;39.778;2.710;2023-02-01T16:13:09;102575.19;;;13.06;100.00
54308;BME280;40208;39.778;2.710;2023-02-01T16:15:53;102574.50;;;12.98;100.00
54308;BME280;40208;39.778;2.710;2023-02-01T16:18:38;102586.19;;;12.93;100.00
54308;BME280;40208;39.778;2.710;2023-02-01T16:21:22;102589.88;;;12.88;100.00
54308;BME280;40208;39.778;2.710;2023-02-01T16:24:07;102592.66;;;12.83;100.00
54308;BME280;40208;39.778;2.710;2023-02-01T16:26:52;102589.22;;;12.80;100.00
54308;BME280;40208;39.778;2.710;2023-02-01T16:29:36;102589.31;;;12.75;100.00
54308;BME280;40208;39.778;2.710;2023-02-01T16:32:21;102594.75;;;12.70;100.00
54308;BME280;40208;39.778;2.710;2023-02-01T16:35:18;102594.00;;;12.65;100.00